sensor_id;sensor_type;location;lat;lon;timestamp;P1;durP1;ratioP1;P2;durP2;ratioP2
42134;SDS011;28312;43.460;11.810;2022-07-23T00:00:22;6.03;;;1.73;;
42134;SDS011;28312;43.460;11.810;2022-07-23T00:04:27;2.42;;;1.58;;
42134;SDS011;28312;43.460;11.810;2022-07-23T00:08:31;2.37;;;1.27;;
42134;SDS011;28312;43.460;11.810;2022-07-23T00:12:36;3.38;;;1.48;;
42134;SDS011;28312;43.460;11.810;2022-07-23T00:16:53;4.20;;;1.30;;
42134;SDS011;28312;43.460;11.810;2022-07-23T00:20:56;2.50;;;1.40;;
42134;SDS011;28312;43.460;11.810;2022-07-23T00:25:00;1.48;;;0.90;;
42134;SDS011;28312;43.460;11.810;2022-07-23T00:29:24;2.35;;;1.50;;
42134;SDS011;28312;43.460;11.810;2022-07-23T00:33:28;1.88;;;1.00;;
42134;SDS011;28312;43.460;11.810;2022-07-23T00:37:31;1.63;;;1.10;;
42134;SDS011;28312;43.460;11.810;2022-07-23T00:41:35;1.60;;;0.88;;
42134;SDS011;28312;43.460;11.810;2022-07-23T00:45:39;1.63;;;1.08;;
42134;SDS011;28312;43.460;11.810;2022-07-23T00:49:44;3.35;;;1.10;;
42134;SDS011;28312;43.460;11.810;2022-07-23T00:53:47;1.40;;;0.90;;
42134;SDS011;28312;43.460;11.810;2022-07-23T00:57:51;1.42;;;0.80;;
42134;SDS011;28312;43.460;11.810;2022-07-23T01:01:57;2.47;;;0.90;;
42134;SDS011;28312;43.460;11.810;2022-07-23T01:06:01;2.17;;;1.15;;
42134;SDS011;28312;43.460;11.810;2022-07-23T01:10:05;2.00;;;1.20;;
42134;SDS011;28312;43.460;11.810;2022-07-23T01:14:32;2.03;;;1.10;;
42134;SDS011;28312;43.460;11.810;2022-07-23T01:18:35;1.42;;;1.02;;
42134;SDS011;28312;43.460;11.810;2022-07-23T01:22:39;2.22;;;1.00;;
42134;SDS011;28312;43.460;11.810;2022-07-23T01:26:43;2.08;;;1.02;;
42134;SDS011;28312;43.460;11.810;2022-07-23T01:30:48;1.52;;;0.88;;
42134;SDS011;28312;43.460;11.810;2022-07-23T01:34:52;2.40;;;1.27;;
42134;SDS011;28312;43.460;11.810;2022-07-23T01:38:57;1.63;;;1.08;;
42134;SDS011;28312;43.460;11.810;2022-07-23T01:43:01;2.13;;;1.08;;
42134;SDS011;28312;43.460;11.810;2022-07-23T01:47:07;2.45;;;1.10;;
42134;SDS011;28312;43.460;11.810;2022-07-23T01:51:11;1.70;;;1.00;;
42134;SDS011;28312;43.460;11.810;2022-07-23T01:55:21;2.25;;;1.20;;
42134;SDS011;28312;43.460;11.810;2022-07-23T01:59:26;3.28;;;1.23;;
42134;SDS011;28312;43.460;11.810;2022-07-23T02:03:30;1.73;;;1.02;;
42134;SDS011;28312;43.460;11.810;2022-07-23T02:07:37;3.00;;;1.00;;
42134;SDS011;28312;43.460;11.810;2022-07-23T02:11:41;2.03;;;1.20;;
42134;SDS011;28312;43.460;11.810;2022-07-23T02:15:47;1.70;;;1.00;;
42134;SDS011;28312;43.460;11.810;2022-07-23T02:19:51;2.40;;;1.30;;
42134;SDS011;28312;43.460;11.810;2022-07-23T02:23:57;1.98;;;1.20;;
42134;SDS011;28312;43.460;11.810;2022-07-23T02:28:00;2.13;;;1.17;;
42134;SDS011;28312;43.460;11.810;2022-07-23T02:32:05;1.45;;;0.80;;
42134;SDS011;28312;43.460;11.810;2022-07-23T02:36:09;3.53;;;1.00;;
42134;SDS011;28312;43.460;11.810;2022-07-23T02:40:14;2.15;;;1.55;;
42134;SDS011;28312;43.460;11.810;2022-07-23T02:44:18;2.33;;;1.25;;
42134;SDS011;28312;43.460;11.810;2022-07-23T02:48:26;2.22;;;1.30;;
42134;SDS011;28312;43.460;11.810;2022-07-23T02:52:30;2.38;;;1.35;;
42134;SDS011;28312;43.460;11.810;2022-07-23T02:56:34;1.90;;;1.00;;
42134;SDS011;28312;43.460;11.810;2022-07-23T03:00:38;2.10;;;1.17;;
42134;SDS011;28312;43.460;11.810;2022-07-23T03:04:42;1.70;;;1.00;;
42134;SDS011;28312;43.460;11.810;2022-07-23T03:08:46;2.20;;;1.00;;
42134;SDS011;28312;43.460;11.810;2022-07-23T03:12:50;1.83;;;1.10;;
42134;SDS011;28312;43.460;11.810;2022-07-23T03:16:54;2.15;;;1.08;;
42134;SDS011;28312;43.460;11.810;2022-07-23T03:20:58;1.90;;;1.05;;
42134;SDS011;28312;43.460;11.810;2022-07-23T03:25:02;1.83;;;1.20;;
42134;SDS011;28312;43.460;11.810;2022-07-23T03:29:09;1.90;;;1.10;;
42134;SDS011;28312;43.460;11.810;2022-07-23T03:33:14;2.50;;;1.58;;
42134;SDS011;28312;43.460;11.810;2022-07-23T03:37:19;1.27;;;0.90;;
42134;SDS011;28312;43.460;11.810;2022-07-23T03:41:23;2.40;;;1.33;;
42134;SDS011;28312;43.460;11.810;2022-07-23T03:45:27;2.30;;;1.40;;
42134;SDS011;28312;43.460;11.810;2022-07-23T03:49:32;2.90;;;1.10;;
42134;SDS011;28312;43.460;11.810;2022-07-23T03:53:36;2.17;;;1.30;;
42134;SDS011;28312;43.460;11.810;2022-07-23T03:57:40;1.75;;;1.20;;
42134;SDS011;28312;43.460;11.810;2022-07-23T04:01:45;2.10;;;1.13;;
42134;SDS011;28312;43.460;11.810;2022-07-23T04:05:49;2.53;;;1.30;;
42134;SDS011;28312;43.460;11.810;2022-07-23T04:09:53;1.67;;;1.00;;
42134;SDS011;28312;43.460;11.810;2022-07-23T04:13:57;2.75;;;1.25;;
42134;SDS011;28312;43.460;11.810;2022-07-23T04:18:00;1.77;;;1.05;;
42134;SDS011;28312;43.460;11.810;2022-07-23T04:22:14;2.40;;;1.30;;
42134;SDS011;28312;43.460;11.810;2022-07-23T04:26:18;1.48;;;0.90;;
42134;SDS011;28312;43.460;11.810;2022-07-23T04:30:21;1.83;;;1.10;;
42134;SDS011;28312;43.460;11.810;2022-07-23T04:34:26;1.95;;;1.20;;
42134;SDS011;28312;43.460;11.810;2022-07-23T04:38:30;2.58;;;1.42;;
42134;SDS011;28312;43.460;11.810;2022-07-23T04:42:37;1.98;;;1.30;;
42134;SDS011;28312;43.460;11.810;2022-07-23T04:46:41;1.80;;;1.00;;
42134;SDS011;28312;43.460;11.810;2022-07-23T04:50:45;1.30;;;0.80;;
42134;SDS011;28312;43.460;11.810;2022-07-23T04:54:59;2.35;;;1.13;;
42134;SDS011;28312;43.460;11.810;2022-07-23T04:59:03;1.83;;;1.02;;
42134;SDS011;28312;43.460;11.810;2022-07-23T05:03:07;2.08;;;1.27;;
42134;SDS011;28312;43.460;11.810;2022-07-23T05:07:11;2.50;;;1.55;;
42134;SDS011;28312;43.460;11.810;2022-07-23T05:11:15;1.80;;;1.27;;
42134;SDS011;28312;43.460;11.810;2022-07-23T05:15:19;1.98;;;1.25;;
42134;SDS011;28312;43.460;11.810;2022-07-23T05:19:25;2.10;;;1.52;;
42134;SDS011;28312;43.460;11.810;2022-07-23T05:23:29;2.25;;;1.17;;
42134;SDS011;28312;43.460;11.810;2022-07-23T05:27:33;1.77;;;1.33;;
42134;SDS011;28312;43.460;11.810;2022-07-23T05:31:36;1.55;;;1.00;;
42134;SDS011;28312;43.460;11.810;2022-07-23T05:35:41;1.60;;;1.02;;
42134;SDS011;28312;43.460;11.810;2022-07-23T05:40:00;1.67;;;1.00;;
42134;SDS011;28312;43.460;11.810;2022-07-23T05:44:06;3.35;;;1.30;;
42134;SDS011;28312;43.460;11.810;2022-07-23T05:48:13;2.08;;;1.20;;
42134;SDS011;28312;43.460;11.810;2022-07-23T05:52:30;1.70;;;1.00;;
42134;SDS011;28312;43.460;11.810;2022-07-23T05:56:56;2.13;;;1.35;;
42134;SDS011;28312;43.460;11.810;2022-07-23T06:01:01;1.63;;;1.13;;
42134;SDS011;28312;43.460;11.810;2022-07-23T06:05:11;2.30;;;1.42;;
42134;SDS011;28312;43.460;11.810;2022-07-23T06:09:15;2.15;;;1.30;;
42134;SDS011;28312;43.460;11.810;2022-07-23T06:13:19;1.73;;;1.13;;
42134;SDS011;28312;43.460;11.810;2022-07-23T06:17:23;2.92;;;1.58;;
42134;SDS011;28312;43.460;11.810;2022-07-23T06:21:27;2.30;;;1.50;;
42134;SDS011;28312;43.460;11.810;2022-07-23T06:25:50;2.05;;;1.52;;
42134;SDS011;28312;43.460;11.810;2022-07-23T06:29:55;2.40;;;1.67;;
42134;SDS011;28312;43.460;11.810;2022-07-23T06:33:59;2.80;;;1.50;;
42134;SDS011;28312;43.460;11.810;2022-07-23T06:38:02;2.38;;;1.38;;
42134;SDS011;28312;43.460;11.810;2022-07-23T06:42:06;2.42;;;1.27;;
42134;SDS011;28312;43.460;11.810;2022-07-23T06:46:13;2.03;;;1.42;;
42134;SDS011;28312;43.460;11.810;2022-07-23T06:50:17;2.05;;;1.35;;
42134;SDS011;28312;43.460;11.810;2022-07-23T06:54:20;2.35;;;1.42;;
42134;SDS011;28312;43.460;11.810;2022-07-23T06:58:26;18.48;;;2.50;;
42134;SDS011;28312;43.460;11.810;2022-07-23T07:02:30;2.15;;;1.50;;
42134;SDS011;28312;43.460;11.810;2022-07-23T07:06:33;2.80;;;1.48;;
42134;SDS011;28312;43.460;11.810;2022-07-23T07:10:37;5.63;;;1.92;;
42134;SDS011;28312;43.460;11.810;2022-07-23T07:14:41;2.33;;;1.45;;
42134;SDS011;28312;43.460;11.810;2022-07-23T07:18:45;2.20;;;1.50;;
42134;SDS011;28312;43.460;11.810;2022-07-23T07:22:49;2.80;;;1.92;;
42134;SDS011;28312;43.460;11.810;2022-07-23T07:26:53;1.92;;;1.30;;
42134;SDS011;28312;43.460;11.810;2022-07-23T07:30:57;2.00;;;1.33;;
42134;SDS011;28312;43.460;11.810;2022-07-23T07:35:01;3.40;;;1.92;;
42134;SDS011;28312;43.460;11.810;2022-07-23T07:39:05;2.03;;;1.45;;
42134;SDS011;28312;43.460;11.810;2022-07-23T07:43:09;2.30;;;1.45;;
42134;SDS011;28312;43.460;11.810;2022-07-23T07:47:14;2.28;;;1.40;;
42134;SDS011;28312;43.460;11.810;2022-07-23T07:51:18;2.42;;;1.58;;
42134;SDS011;28312;43.460;11.810;2022-07-23T07:55:22;2.25;;;1.67;;
42134;SDS011;28312;43.460;11.810;2022-07-23T07:59:29;2.85;;;2.13;;
42134;SDS011;28312;43.460;11.810;2022-07-23T08:03:35;2.75;;;1.92;;
42134;SDS011;28312;43.460;11.810;2022-07-23T08:07:39;3.67;;;1.73;;
42134;SDS011;28312;43.460;11.810;2022-07-23T08:11:43;2.72;;;1.70;;
42134;SDS011;28312;43.460;11.810;2022-07-23T08:15:48;3.60;;;2.13;;
42134;SDS011;28312;43.460;11.810;2022-07-23T08:19:54;3.80;;;2.80;;
42134;SDS011;28312;43.460;11.810;2022-07-23T08:28:04;5.47;;;2.55;;
42134;SDS011;28312;43.460;11.810;2022-07-23T08:32:09;2.88;;;2.13;;
42134;SDS011;28312;43.460;11.810;2022-07-23T08:36:33;3.45;;;2.63;;
42134;SDS011;28312;43.460;11.810;2022-07-23T08:40:37;2.50;;;1.55;;
42134;SDS011;28312;43.460;11.810;2022-07-23T08:44:45;2.88;;;2.15;;
42134;SDS011;28312;43.460;11.810;2022-07-23T08:48:49;3.05;;;2.10;;
42134;SDS011;28312;43.460;11.810;2022-07-23T08:52:54;7.45;;;3.13;;
42134;SDS011;28312;43.460;11.810;2022-07-23T08:56:59;10.23;;;2.90;;
42134;SDS011;28312;43.460;11.810;2022-07-23T09:01:03;2.30;;;1.85;;
42134;SDS011;28312;43.460;11.810;2022-07-23T09:05:09;3.13;;;1.73;;
42134;SDS011;28312;43.460;11.810;2022-07-23T09:09:20;2.35;;;1.55;;
42134;SDS011;28312;43.460;11.810;2022-07-23T09:13:28;5.00;;;2.55;;
42134;SDS011;28312;43.460;11.810;2022-07-23T09:17:41;3.40;;;2.08;;
42134;SDS011;28312;43.460;11.810;2022-07-23T09:25:49;3.13;;;2.05;;
42134;SDS011;28312;43.460;11.810;2022-07-23T09:29:56;3.90;;;2.63;;
42134;SDS011;28312;43.460;11.810;2022-07-23T09:34:12;5.28;;;2.28;;
42134;SDS011;28312;43.460;11.810;2022-07-23T09:38:19;5.25;;;1.90;;
42134;SDS011;28312;43.460;11.810;2022-07-23T09:42:25;3.53;;;2.63;;
42134;SDS011;28312;43.460;11.810;2022-07-23T09:46:29;3.50;;;2.28;;
42134;SDS011;28312;43.460;11.810;2022-07-23T09:50:33;3.25;;;2.05;;
42134;SDS011;28312;43.460;11.810;2022-07-23T09:54:37;2.33;;;1.60;;
42134;SDS011;28312;43.460;11.810;2022-07-23T09:58:43;3.55;;;2.22;;
42134;SDS011;28312;43.460;11.810;2022-07-23T10:02:51;2.28;;;1.65;;
42134;SDS011;28312;43.460;11.810;2022-07-23T10:07:04;2.63;;;1.70;;
42134;SDS011;28312;43.460;11.810;2022-07-23T10:11:43;3.28;;;1.83;;
42134;SDS011;28312;43.460;11.810;2022-07-23T10:16:03;7.18;;;1.70;;
42134;SDS011;28312;43.460;11.810;2022-07-23T10:20:07;2.90;;;2.03;;
42134;SDS011;28312;43.460;11.810;2022-07-23T10:24:34;2.65;;;1.70;;
42134;SDS011;28312;43.460;11.810;2022-07-23T10:37:35;3.63;;;1.90;;
42134;SDS011;28312;43.460;11.810;2022-07-23T10:41:44;2.38;;;1.85;;
42134;SDS011;28312;43.460;11.810;2022-07-23T10:45:46;4.97;;;3.35;;
42134;SDS011;28312;43.460;11.810;2022-07-23T10:49:51;2.50;;;1.83;;
42134;SDS011;28312;43.460;11.810;2022-07-23T10:53:57;2.53;;;1.98;;
42134;SDS011;28312;43.460;11.810;2022-07-23T10:58:02;3.30;;;2.40;;
42134;SDS011;28312;43.460;11.810;2022-07-23T11:02:20;4.10;;;3.28;;
42134;SDS011;28312;43.460;11.810;2022-07-23T11:07:06;2.40;;;1.73;;
42134;SDS011;28312;43.460;11.810;2022-07-23T11:15:12;3.13;;;1.88;;
42134;SDS011;28312;43.460;11.810;2022-07-23T11:19:17;2.97;;;2.10;;
42134;SDS011;28312;43.460;11.810;2022-07-23T11:23:21;3.10;;;1.53;;
42134;SDS011;28312;43.460;11.810;2022-07-23T11:27:36;2.97;;;1.50;;
42134;SDS011;28312;43.460;11.810;2022-07-23T11:31:51;1.77;;;1.25;;
42134;SDS011;28312;43.460;11.810;2022-07-23T11:36:04;1.87;;;1.23;;
42134;SDS011;28312;43.460;11.810;2022-07-23T11:44:25;4.88;;;2.08;;
42134;SDS011;28312;43.460;11.810;2022-07-23T11:48:33;1.80;;;1.10;;
42134;SDS011;28312;43.460;11.810;2022-07-23T11:52:42;2.65;;;1.80;;
42134;SDS011;28312;43.460;11.810;2022-07-23T11:56:56;2.63;;;1.60;;
42134;SDS011;28312;43.460;11.810;2022-07-23T12:01:03;1.83;;;1.08;;
42134;SDS011;28312;43.460;11.810;2022-07-23T12:09:13;2.13;;;1.10;;
42134;SDS011;28312;43.460;11.810;2022-07-23T12:13:18;2.30;;;1.00;;
42134;SDS011;28312;43.460;11.810;2022-07-23T12:17:31;2.10;;;1.50;;
42134;SDS011;28312;43.460;11.810;2022-07-23T12:21:41;1.73;;;1.05;;
42134;SDS011;28312;43.460;11.810;2022-07-23T12:25:45;1.67;;;1.17;;
42134;SDS011;28312;43.460;11.810;2022-07-23T12:29:50;1.85;;;1.08;;
42134;SDS011;28312;43.460;11.810;2022-07-23T12:33:54;1.50;;;1.02;;
42134;SDS011;28312;43.460;11.810;2022-07-23T12:38:05;2.33;;;1.65;;
42134;SDS011;28312;43.460;11.810;2022-07-23T12:42:15;2.83;;;1.77;;
42134;SDS011;28312;43.460;11.810;2022-07-23T12:46:20;3.77;;;2.37;;
42134;SDS011;28312;43.460;11.810;2022-07-23T12:50:38;2.78;;;2.35;;
42134;SDS011;28312;43.460;11.810;2022-07-23T12:54:46;2.67;;;2.05;;
42134;SDS011;28312;43.460;11.810;2022-07-23T12:58:52;2.38;;;1.50;;
42134;SDS011;28312;43.460;11.810;2022-07-23T13:02:57;1.70;;;1.23;;
42134;SDS011;28312;43.460;11.810;2022-07-23T13:07:01;3.60;;;2.45;;
42134;SDS011;28312;43.460;11.810;2022-07-23T13:11:06;3.95;;;2.60;;
42134;SDS011;28312;43.460;11.810;2022-07-23T13:15:10;2.88;;;1.75;;
42134;SDS011;28312;43.460;11.810;2022-07-23T13:19:13;2.17;;;1.60;;
42134;SDS011;28312;43.460;11.810;2022-07-23T13:23:20;2.08;;;1.42;;
42134;SDS011;28312;43.460;11.810;2022-07-23T13:27:24;2.85;;;1.60;;
42134;SDS011;28312;43.460;11.810;2022-07-23T13:31:28;2.10;;;1.58;;
42134;SDS011;28312;43.460;11.810;2022-07-23T13:35:33;1.80;;;1.10;;
42134;SDS011;28312;43.460;11.810;2022-07-23T13:39:38;2.13;;;1.30;;
42134;SDS011;28312;43.460;11.810;2022-07-23T13:43:44;2.10;;;1.17;;
42134;SDS011;28312;43.460;11.810;2022-07-23T13:47:49;2.20;;;1.15;;
42134;SDS011;28312;43.460;11.810;2022-07-23T13:51:54;1.27;;;0.90;;
42134;SDS011;28312;43.460;11.810;2022-07-23T13:56:00;3.17;;;1.35;;
42134;SDS011;28312;43.460;11.810;2022-07-23T14:00:05;2.72;;;1.08;;
42134;SDS011;28312;43.460;11.810;2022-07-23T14:04:12;3.50;;;1.58;;
42134;SDS011;28312;43.460;11.810;2022-07-23T14:08:16;1.92;;;1.45;;
42134;SDS011;28312;43.460;11.810;2022-07-23T14:12:23;2.10;;;1.50;;
42134;SDS011;28312;43.460;11.810;2022-07-23T14:16:35;2.53;;;1.27;;
42134;SDS011;28312;43.460;11.810;2022-07-23T14:20:38;1.35;;;0.90;;
42134;SDS011;28312;43.460;11.810;2022-07-23T14:24:42;3.47;;;1.30;;
42134;SDS011;28312;43.460;11.810;2022-07-23T14:28:46;1.80;;;1.20;;
42134;SDS011;28312;43.460;11.810;2022-07-23T14:32:50;1.60;;;0.93;;
42134;SDS011;28312;43.460;11.810;2022-07-23T14:36:55;4.82;;;1.52;;
42134;SDS011;28312;43.460;11.810;2022-07-23T14:41:00;2.97;;;1.60;;
42134;SDS011;28312;43.460;11.810;2022-07-23T14:45:04;1.80;;;1.17;;
42134;SDS011;28312;43.460;11.810;2022-07-23T14:49:13;2.20;;;1.23;;
42134;SDS011;28312;43.460;11.810;2022-07-23T14:53:17;1.92;;;1.25;;
42134;SDS011;28312;43.460;11.810;2022-07-23T14:57:24;3.55;;;2.10;;
42134;SDS011;28312;43.460;11.810;2022-07-23T15:01:29;3.10;;;2.80;;
42134;SDS011;28312;43.460;11.810;2022-07-23T15:05:33;2.65;;;2.42;;
42134;SDS011;28312;43.460;11.810;2022-07-23T15:09:38;2.88;;;2.25;;
42134;SDS011;28312;43.460;11.810;2022-07-23T15:13:41;3.95;;;1.95;;
42134;SDS011;28312;43.460;11.810;2022-07-23T15:17:46;2.95;;;2.10;;
42134;SDS011;28312;43.460;11.810;2022-07-23T15:21:51;2.38;;;1.45;;
42134;SDS011;28312;43.460;11.810;2022-07-23T15:25:55;6.03;;;2.20;;
42134;SDS011;28312;43.460;11.810;2022-07-23T15:30:00;3.45;;;1.92;;
42134;SDS011;28312;43.460;11.810;2022-07-23T15:34:04;2.20;;;1.40;;
42134;SDS011;28312;43.460;11.810;2022-07-23T15:38:08;3.05;;;1.90;;
42134;SDS011;28312;43.460;11.810;2022-07-23T15:42:14;2.15;;;1.27;;
42134;SDS011;28312;43.460;11.810;2022-07-23T15:46:18;2.38;;;1.73;;
42134;SDS011;28312;43.460;11.810;2022-07-23T15:50:28;2.85;;;1.73;;
42134;SDS011;28312;43.460;11.810;2022-07-23T15:58:37;2.30;;;1.20;;
42134;SDS011;28312;43.460;11.810;2022-07-23T16:02:41;2.00;;;1.25;;
42134;SDS011;28312;43.460;11.810;2022-07-23T16:06:45;3.58;;;1.55;;
42134;SDS011;28312;43.460;11.810;2022-07-23T16:10:48;3.00;;;1.47;;
42134;SDS011;28312;43.460;11.810;2022-07-23T16:14:53;2.10;;;1.30;;
42134;SDS011;28312;43.460;11.810;2022-07-23T16:18:57;2.50;;;1.25;;
42134;SDS011;28312;43.460;11.810;2022-07-23T16:23:01;2.42;;;1.42;;
42134;SDS011;28312;43.460;11.810;2022-07-23T16:27:05;2.83;;;1.97;;
42134;SDS011;28312;43.460;11.810;2022-07-23T16:31:09;2.77;;;1.60;;
42134;SDS011;28312;43.460;11.810;2022-07-23T16:35:14;3.17;;;1.70;;
42134;SDS011;28312;43.460;11.810;2022-07-23T16:39:18;2.67;;;1.83;;
42134;SDS011;28312;43.460;11.810;2022-07-23T16:43:22;3.10;;;2.00;;
42134;SDS011;28312;43.460;11.810;2022-07-23T16:47:25;4.07;;;1.75;;
42134;SDS011;28312;43.460;11.810;2022-07-23T16:51:29;3.22;;;1.65;;
42134;SDS011;28312;43.460;11.810;2022-07-23T16:55:33;2.20;;;1.23;;
42134;SDS011;28312;43.460;11.810;2022-07-23T16:59:37;2.43;;;1.50;;
42134;SDS011;28312;43.460;11.810;2022-07-23T17:03:42;4.55;;;1.83;;
42134;SDS011;28312;43.460;11.810;2022-07-23T17:07:46;1.90;;;1.30;;
42134;SDS011;28312;43.460;11.810;2022-07-23T17:11:49;2.85;;;1.70;;
42134;SDS011;28312;43.460;11.810;2022-07-23T17:15:53;4.40;;;2.10;;
42134;SDS011;28312;43.460;11.810;2022-07-23T17:19:58;3.03;;;1.55;;
42134;SDS011;28312;43.460;11.810;2022-07-23T17:24:01;3.05;;;1.50;;
42134;SDS011;28312;43.460;11.810;2022-07-23T17:28:12;2.00;;;1.50;;
42134;SDS011;28312;43.460;11.810;2022-07-23T17:32:16;2.00;;;1.50;;
42134;SDS011;28312;43.460;11.810;2022-07-23T17:36:20;3.08;;;1.40;;
42134;SDS011;28312;43.460;11.810;2022-07-23T17:40:24;2.50;;;1.52;;
42134;SDS011;28312;43.460;11.810;2022-07-23T17:44:28;3.42;;;1.27;;
42134;SDS011;28312;43.460;11.810;2022-07-23T17:52:45;2.47;;;1.10;;
42134;SDS011;28312;43.460;11.810;2022-07-23T17:56:51;1.95;;;1.25;;
42134;SDS011;28312;43.460;11.810;2022-07-23T18:00:55;2.57;;;1.50;;
42134;SDS011;28312;43.460;11.810;2022-07-23T18:04:59;1.58;;;1.08;;
42134;SDS011;28312;43.460;11.810;2022-07-23T18:09:03;2.03;;;1.20;;
42134;SDS011;28312;43.460;11.810;2022-07-23T18:13:08;5.85;;;1.42;;
42134;SDS011;28312;43.460;11.810;2022-07-23T18:17:12;2.10;;;1.25;;
42134;SDS011;28312;43.460;11.810;2022-07-23T18:21:15;2.03;;;1.10;;
42134;SDS011;28312;43.460;11.810;2022-07-23T18:25:19;1.27;;;1.02;;
42134;SDS011;28312;43.460;11.810;2022-07-23T18:29:26;1.80;;;1.10;;
42134;SDS011;28312;43.460;11.810;2022-07-23T18:33:30;2.28;;;1.60;;
42134;SDS011;28312;43.460;11.810;2022-07-23T18:37:40;2.03;;;1.20;;
42134;SDS011;28312;43.460;11.810;2022-07-23T18:41:44;1.80;;;1.00;;
42134;SDS011;28312;43.460;11.810;2022-07-23T18:45:49;1.80;;;1.20;;
42134;SDS011;28312;43.460;11.810;2022-07-23T18:49:53;1.77;;;1.10;;
42134;SDS011;28312;43.460;11.810;2022-07-23T18:53:57;2.03;;;1.30;;
42134;SDS011;28312;43.460;11.810;2022-07-23T18:58:00;1.80;;;1.10;;
42134;SDS011;28312;43.460;11.810;2022-07-23T19:02:05;1.42;;;0.80;;
42134;SDS011;28312;43.460;11.810;2022-07-23T19:06:09;2.13;;;1.30;;
42134;SDS011;28312;43.460;11.810;2022-07-23T19:10:13;1.63;;;0.82;;
42134;SDS011;28312;43.460;11.810;2022-07-23T19:14:18;3.17;;;1.00;;
42134;SDS011;28312;43.460;11.810;2022-07-23T19:18:21;2.72;;;1.17;;
42134;SDS011;28312;43.460;11.810;2022-07-23T19:22:26;2.05;;;1.48;;
42134;SDS011;28312;43.460;11.810;2022-07-23T19:26:29;2.00;;;1.17;;
42134;SDS011;28312;43.460;11.810;2022-07-23T19:30:33;1.92;;;1.00;;
42134;SDS011;28312;43.460;11.810;2022-07-23T19:34:37;2.75;;;1.20;;
42134;SDS011;28312;43.460;11.810;2022-07-23T19:38:41;1.67;;;0.90;;
42134;SDS011;28312;43.460;11.810;2022-07-23T19:42:47;1.05;;;0.80;;
42134;SDS011;28312;43.460;11.810;2022-07-23T19:46:50;1.52;;;0.70;;
42134;SDS011;28312;43.460;11.810;2022-07-23T19:50:54;1.42;;;0.85;;
42134;SDS011;28312;43.460;11.810;2022-07-23T19:54:59;1.90;;;1.08;;
42134;SDS011;28312;43.460;11.810;2022-07-23T19:59:20;2.17;;;1.05;;
42134;SDS011;28312;43.460;11.810;2022-07-23T20:03:24;1.73;;;1.00;;
42134;SDS011;28312;43.460;11.810;2022-07-23T20:07:28;1.58;;;0.90;;
42134;SDS011;28312;43.460;11.810;2022-07-23T20:11:31;1.95;;;1.00;;
42134;SDS011;28312;43.460;11.810;2022-07-23T20:15:35;2.35;;;1.27;;
42134;SDS011;28312;43.460;11.810;2022-07-23T20:19:39;2.08;;;1.10;;
42134;SDS011;28312;43.460;11.810;2022-07-23T20:23:43;1.55;;;0.93;;
42134;SDS011;28312;43.460;11.810;2022-07-23T20:27:47;1.48;;;0.95;;
42134;SDS011;28312;43.460;11.810;2022-07-23T20:31:51;1.67;;;1.10;;
42134;SDS011;28312;43.460;11.810;2022-07-23T20:35:55;2.13;;;1.38;;
42134;SDS011;28312;43.460;11.810;2022-07-23T20:40:00;2.33;;;1.43;;
42134;SDS011;28312;43.460;11.810;2022-07-23T20:44:04;2.03;;;1.10;;
42134;SDS011;28312;43.460;11.810;2022-07-23T20:48:09;2.17;;;1.10;;
42134;SDS011;28312;43.460;11.810;2022-07-23T20:52:13;3.08;;;0.98;;
42134;SDS011;28312;43.460;11.810;2022-07-23T20:56:24;1.50;;;1.10;;
42134;SDS011;28312;43.460;11.810;2022-07-23T21:00:29;1.75;;;1.08;;
42134;SDS011;28312;43.460;11.810;2022-07-23T21:04:33;1.50;;;1.00;;
42134;SDS011;28312;43.460;11.810;2022-07-23T21:08:38;2.08;;;1.02;;
42134;SDS011;28312;43.460;11.810;2022-07-23T21:12:42;1.40;;;0.85;;
42134;SDS011;28312;43.460;11.810;2022-07-23T21:16:45;1.75;;;1.08;;
42134;SDS011;28312;43.460;11.810;2022-07-23T21:20:49;1.73;;;0.90;;
42134;SDS011;28312;43.460;11.810;2022-07-23T21:25:12;1.15;;;0.80;;
42134;SDS011;28312;43.460;11.810;2022-07-23T21:33:20;4.78;;;1.00;;
42134;SDS011;28312;43.460;11.810;2022-07-23T21:37:24;1.40;;;0.85;;
42134;SDS011;28312;43.460;11.810;2022-07-23T21:41:31;2.33;;;1.02;;
42134;SDS011;28312;43.460;11.810;2022-07-23T21:45:34;1.98;;;1.20;;
42134;SDS011;28312;43.460;11.810;2022-07-23T21:49:41;1.00;;;0.70;;
42134;SDS011;28312;43.460;11.810;2022-07-23T21:53:45;1.20;;;0.70;;
42134;SDS011;28312;43.460;11.810;2022-07-23T21:57:48;1.67;;;1.00;;
42134;SDS011;28312;43.460;11.810;2022-07-23T22:01:52;2.35;;;1.00;;
42134;SDS011;28312;43.460;11.810;2022-07-23T22:05:56;2.60;;;1.27;;
42134;SDS011;28312;43.460;11.810;2022-07-23T22:10:06;1.73;;;1.13;;
42134;SDS011;28312;43.460;11.810;2022-07-23T22:14:13;1.45;;;0.90;;
42134;SDS011;28312;43.460;11.810;2022-07-23T22:18:18;1.42;;;1.00;;
42134;SDS011;28312;43.460;11.810;2022-07-23T22:22:22;2.00;;;1.10;;
42134;SDS011;28312;43.460;11.810;2022-07-23T22:26:25;1.80;;;1.02;;
42134;SDS011;28312;43.460;11.810;2022-07-23T22:30:31;2.13;;;1.13;;
42134;SDS011;28312;43.460;11.810;2022-07-23T22:34:36;1.55;;;1.02;;
42134;SDS011;28312;43.460;11.810;2022-07-23T22:38:39;1.92;;;0.75;;
42134;SDS011;28312;43.460;11.810;2022-07-23T22:42:44;1.40;;;0.77;;
42134;SDS011;28312;43.460;11.810;2022-07-23T22:46:49;1.73;;;0.97;;
42134;SDS011;28312;43.460;11.810;2022-07-23T22:50:52;1.75;;;0.80;;
42134;SDS011;28312;43.460;11.810;2022-07-23T22:54:56;1.20;;;0.70;;
42134;SDS011;28312;43.460;11.810;2022-07-23T22:59:00;1.60;;;0.80;;
42134;SDS011;28312;43.460;11.810;2022-07-23T23:03:26;2.25;;;1.33;;
42134;SDS011;28312;43.460;11.810;2022-07-23T23:07:30;2.03;;;1.30;;
42134;SDS011;28312;43.460;11.810;2022-07-23T23:11:34;2.30;;;1.35;;
42134;SDS011;28312;43.460;11.810;2022-07-23T23:15:38;1.88;;;1.23;;
42134;SDS011;28312;43.460;11.810;2022-07-23T23:19:43;1.90;;;1.20;;
42134;SDS011;28312;43.460;11.810;2022-07-23T23:23:47;1.88;;;1.13;;
42134;SDS011;28312;43.460;11.810;2022-07-23T23:27:50;1.38;;;0.80;;
42134;SDS011;28312;43.460;11.810;2022-07-23T23:31:55;2.47;;;1.50;;
42134;SDS011;28312;43.460;11.810;2022-07-23T23:35:59;1.63;;;1.17;;
42134;SDS011;28312;43.460;11.810;2022-07-23T23:40:03;2.22;;;1.42;;
42134;SDS011;28312;43.460;11.810;2022-07-23T23:44:08;1.80;;;0.90;;
42134;SDS011;28312;43.460;11.810;2022-07-23T23:48:12;2.95;;;1.50;;
42134;SDS011;28312;43.460;11.810;2022-07-23T23:52:15;2.22;;;1.38;;
42134;SDS011;28312;43.460;11.810;2022-07-23T23:56:22;1.80;;;1.20;;
